sensor_id;sensor_type;location;lat;lon;timestamp;temperature;humidity
17529;DHT22;8882;53.192;8.184;2024-01-07T05:16:18;-0.90;99.90
17529;DHT22;8882;53.192;8.184;2024-01-07T05:18:44;-1.00;99.90
17529;DHT22;8882;53.192;8.184;2024-01-07T05:21:14;-1.00;99.90
17529;DHT22;8882;53.192;8.184;2024-01-07T05:23:40;-1.00;99.90
17529;DHT22;8882;53.192;8.184;2024-01-07T05:26:05;-1.00;99.90
17529;DHT22;8882;53.192;8.184;2024-01-07T05:28:31;-1.10;99.90
17529;DHT22;8882;53.192;8.184;2024-01-07T05:30:56;-1.10;99.90
17529;DHT22;8882;53.192;8.184;2024-01-07T05:33:22;-1.10;99.90
17529;DHT22;8882;53.192;8.184;2024-01-07T05:35:47;-1.10;99.90
17529;DHT22;8882;53.192;8.184;2024-01-07T05:38:13;-1.10;99.90
17529;DHT22;8882;53.192;8.184;2024-01-07T05:40:38;-1.10;99.90
17529;DHT22;8882;53.192;8.184;2024-01-07T05:43:04;-1.10;99.90
17529;DHT22;8882;53.192;8.184;2024-01-07T05:45:29;-1.20;99.90
17529;DHT22;8882;53.192;8.184;2024-01-07T05:47:55;-1.20;99.90
17529;DHT22;8882;53.192;8.184;2024-01-07T05:50:20;-1.20;99.90
17529;DHT22;8882;53.192;8.184;2024-01-07T05:52:46;-1.20;99.90
17529;DHT22;8882;53.192;8.184;2024-01-07T05:55:11;-1.20;99.90
17529;DHT22;8882;53.192;8.184;2024-01-07T05:57:37;-1.20;99.90
17529;DHT22;8882;53.192;8.184;2024-01-07T06:00:03;-1.20;99.90
17529;DHT22;8882;53.192;8.184;2024-01-07T06:02:29;-1.20;99.90
17529;DHT22;8882;53.192;8.184;2024-01-07T06:04:54;-1.20;99.90
17529;DHT22;8882;53.192;8.184;2024-01-07T06:07:20;-1.20;99.90
17529;DHT22;8882;53.192;8.184;2024-01-07T06:09:45;-1.20;99.90
17529;DHT22;8882;53.192;8.184;2024-01-07T06:12:10;-1.10;99.90
17529;DHT22;8882;53.192;8.184;2024-01-07T06:14:36;-1.20;99.90
17529;DHT22;8882;53.192;8.184;2024-01-07T06:17:02;-1.20;99.90
17529;DHT22;8882;53.192;8.184;2024-01-07T06:19:27;-1.20;99.90
17529;DHT22;8882;53.192;8.184;2024-01-07T06:21:53;-1.10;99.90
17529;DHT22;8882;53.192;8.184;2024-01-07T06:24:18;-1.10;99.90
17529;DHT22;8882;53.192;8.184;2024-01-07T06:26:43;-1.10;99.90
17529;DHT22;8882;53.192;8.184;2024-01-07T06:29:09;-1.10;99.90
17529;DHT22;8882;53.192;8.184;2024-01-07T06:31:35;-1.00;99.90
17529;DHT22;8882;53.192;8.184;2024-01-07T06:34:00;-1.00;99.90
17529;DHT22;8882;53.192;8.184;2024-01-07T06:36:26;-1.00;99.90
17529;DHT22;8882;53.192;8.184;2024-01-07T06:38:51;-1.00;99.90
17529;DHT22;8882;53.192;8.184;2024-01-07T06:41:18;-1.00;99.90
17529;DHT22;8882;53.192;8.184;2024-01-07T06:43:43;-1.00;99.90
17529;DHT22;8882;53.192;8.184;2024-01-07T06:46:10;-1.00;99.90
17529;DHT22;8882;53.192;8.184;2024-01-07T06:48:35;-1.00;99.90
17529;DHT22;8882;53.192;8.184;2024-01-07T06:51:01;-1.00;99.90
17529;DHT22;8882;53.192;8.184;2024-01-07T06:53:26;-0.90;99.90
17529;DHT22;8882;53.192;8.184;2024-01-07T06:55:52;-0.90;99.90
17529;DHT22;8882;53.192;8.184;2024-01-07T06:58:17;-0.90;99.90
17529;DHT22;8882;53.192;8.184;2024-01-07T07:00:43;-0.90;99.90
17529;DHT22;8882;53.192;8.184;2024-01-07T07:03:08;-0.80;99.90
17529;DHT22;8882;53.192;8.184;2024-01-07T07:05:34;-0.80;99.90
17529;DHT22;8882;53.192;8.184;2024-01-07T07:07:59;-0.80;99.90
17529;DHT22;8882;53.192;8.184;2024-01-07T07:10:25;-0.80;99.90
17529;DHT22;8882;53.192;8.184;2024-01-07T07:12:51;-0.80;99.90
17529;DHT22;8882;53.192;8.184;2024-01-07T07:15:17;-0.80;99.90
17529;DHT22;8882;53.192;8.184;2024-01-07T07:17:42;-0.80;99.90
17529;DHT22;8882;53.192;8.184;2024-01-07T07:20:08;-0.80;99.90
17529;DHT22;8882;53.192;8.184;2024-01-07T07:22:34;-0.80;99.90
17529;DHT22;8882;53.192;8.184;2024-01-07T07:25:00;-0.80;99.90
17529;DHT22;8882;53.192;8.184;2024-01-07T07:27:25;-0.80;99.90
17529;DHT22;8882;53.192;8.184;2024-01-07T07:29:51;-0.70;99.90
17529;DHT22;8882;53.192;8.184;2024-01-07T07:32:17;-0.70;99.90
17529;DHT22;8882;53.192;8.184;2024-01-07T07:34:42;-0.70;99.90
17529;DHT22;8882;53.192;8.184;2024-01-07T07:37:08;-0.70;99.90
17529;DHT22;8882;53.192;8.184;2024-01-07T07:39:33;-0.70;99.90
17529;DHT22;8882;53.192;8.184;2024-01-07T07:41:59;-0.60;99.90
17529;DHT22;8882;53.192;8.184;2024-01-07T07:44:25;-0.60;99.90
17529;DHT22;8882;53.192;8.184;2024-01-07T07:46:50;-0.60;99.90
17529;DHT22;8882;53.192;8.184;2024-01-07T07:49:16;-0.60;99.90
17529;DHT22;8882;53.192;8.184;2024-01-07T07:51:42;-0.60;99.90
17529;DHT22;8882;53.192;8.184;2024-01-07T07:54:08;-0.60;99.90
17529;DHT22;8882;53.192;8.184;2024-01-07T07:56:34;-0.50;99.90
17529;DHT22;8882;53.192;8.184;2024-01-07T07:59:01;-0.50;99.90
17529;DHT22;8882;53.192;8.184;2024-01-07T08:01:27;-0.50;99.90
17529;DHT22;8882;53.192;8.184;2024-01-07T08:03:52;-0.50;99.90
17529;DHT22;8882;53.192;8.184;2024-01-07T08:06:18;-0.50;99.90
17529;DHT22;8882;53.192;8.184;2024-01-07T08:08:43;-0.50;99.90
17529;DHT22;8882;53.192;8.184;2024-01-07T08:11:09;-0.50;99.90
17529;DHT22;8882;53.192;8.184;2024-01-07T08:13:35;-0.50;99.90
17529;DHT22;8882;53.192;8.184;2024-01-07T08:16:01;-0.60;99.90
17529;DHT22;8882;53.192;8.184;2024-01-07T08:18:27;-0.50;99.90
17529;DHT22;8882;53.192;8.184;2024-01-07T08:20:52;-0.50;99.90
17529;DHT22;8882;53.192;8.184;2024-01-07T08:23:18;-0.50;99.90
17529;DHT22;8882;53.192;8.184;2024-01-07T08:25:43;-0.50;99.90
17529;DHT22;8882;53.192;8.184;2024-01-07T08:28:10;-0.50;99.90
17529;DHT22;8882;53.192;8.184;2024-01-07T08:30:36;-0.40;99.90
17529;DHT22;8882;53.192;8.184;2024-01-07T08:33:01;-0.20;99.90
17529;DHT22;8882;53.192;8.184;2024-01-07T08:35:27;-0.20;99.90
17529;DHT22;8882;53.192;8.184;2024-01-07T08:37:52;-0.30;99.90
17529;DHT22;8882;53.192;8.184;2024-01-07T08:40:18;-0.30;99.90
17529;DHT22;8882;53.192;8.184;2024-01-07T08:42:44;-0.30;99.90
17529;DHT22;8882;53.192;8.184;2024-01-07T08:45:10;-0.30;99.90
17529;DHT22;8882;53.192;8.184;2024-01-07T08:47:36;-0.30;99.90
17529;DHT22;8882;53.192;8.184;2024-01-07T08:50:02;-0.40;99.90
17529;DHT22;8882;53.192;8.184;2024-01-07T08:52:28;-0.40;99.90
17529;DHT22;8882;53.192;8.184;2024-01-07T08:54:54;-0.40;99.90
17529;DHT22;8882;53.192;8.184;2024-01-07T08:57:20;-0.30;99.90
17529;DHT22;8882;53.192;8.184;2024-01-07T08:59:46;-0.30;99.90
17529;DHT22;8882;53.192;8.184;2024-01-07T09:02:11;-0.20;99.90
17529;DHT22;8882;53.192;8.184;2024-01-07T09:04:37;-0.20;99.90
17529;DHT22;8882;53.192;8.184;2024-01-07T09:07:03;-0.10;99.90
17529;DHT22;8882;53.192;8.184;2024-01-07T09:09:29;-0.10;99.90
17529;DHT22;8882;53.192;8.184;2024-01-07T09:11:54;-0.10;99.90
17529;DHT22;8882;53.192;8.184;2024-01-07T09:14:22;0.00;99.90
17529;DHT22;8882;53.192;8.184;2024-01-07T09:16:47;0.00;99.90
17529;DHT22;8882;53.192;8.184;2024-01-07T09:19:13;0.10;99.90
17529;DHT22;8882;53.192;8.184;2024-01-07T09:21:38;0.10;99.90
17529;DHT22;8882;53.192;8.184;2024-01-07T09:24:04;0.10;99.90
17529;DHT22;8882;53.192;8.184;2024-01-07T09:26:30;0.10;99.90
17529;DHT22;8882;53.192;8.184;2024-01-07T09:28:56;0.10;99.90
17529;DHT22;8882;53.192;8.184;2024-01-07T09:31:22;0.10;99.90
17529;DHT22;8882;53.192;8.184;2024-01-07T09:33:47;0.10;99.90
17529;DHT22;8882;53.192;8.184;2024-01-07T09:36:12;0.10;99.90
17529;DHT22;8882;53.192;8.184;2024-01-07T09:38:38;0.10;99.90
17529;DHT22;8882;53.192;8.184;2024-01-07T09:41:05;0.20;99.90
17529;DHT22;8882;53.192;8.184;2024-01-07T09:43:30;0.10;99.90
17529;DHT22;8882;53.192;8.184;2024-01-07T09:45:56;0.20;99.90
17529;DHT22;8882;53.192;8.184;2024-01-07T09:48:22;0.20;99.90
17529;DHT22;8882;53.192;8.184;2024-01-07T09:50:49;0.20;99.90
17529;DHT22;8882;53.192;8.184;2024-01-07T09:53:16;0.30;99.90
17529;DHT22;8882;53.192;8.184;2024-01-07T09:56:01;0.30;99.90
17529;DHT22;8882;53.192;8.184;2024-01-07T09:58:28;0.30;99.90
17529;DHT22;8882;53.192;8.184;2024-01-07T10:00:54;0.20;99.90
17529;DHT22;8882;53.192;8.184;2024-01-07T10:03:20;0.10;99.90
17529;DHT22;8882;53.192;8.184;2024-01-07T10:05:45;0.00;99.90
17529;DHT22;8882;53.192;8.184;2024-01-07T10:08:11;0.00;99.90
17529;DHT22;8882;53.192;8.184;2024-01-07T10:10:36;-0.20;99.90
17529;DHT22;8882;53.192;8.184;2024-01-07T10:13:02;-0.30;99.90
17529;DHT22;8882;53.192;8.184;2024-01-07T10:15:28;-0.30;99.90
17529;DHT22;8882;53.192;8.184;2024-01-07T10:18:03;0.40;99.90
17529;DHT22;8882;53.192;8.184;2024-01-07T10:20:29;0.30;99.90
17529;DHT22;8882;53.192;8.184;2024-01-07T10:22:56;0.00;99.90
17529;DHT22;8882;53.192;8.184;2024-01-07T10:25:22;-0.10;99.90
17529;DHT22;8882;53.192;8.184;2024-01-07T10:27:48;-0.10;99.90
17529;DHT22;8882;53.192;8.184;2024-01-07T10:30:15;-0.10;99.90
17529;DHT22;8882;53.192;8.184;2024-01-07T10:32:42;-0.10;99.90
17529;DHT22;8882;53.192;8.184;2024-01-07T10:35:12;0.00;99.90
17529;DHT22;8882;53.192;8.184;2024-01-07T10:37:39;0.00;99.90
17529;DHT22;8882;53.192;8.184;2024-01-07T10:40:06;0.00;99.90
17529;DHT22;8882;53.192;8.184;2024-01-07T10:42:33;0.00;99.90
17529;DHT22;8882;53.192;8.184;2024-01-07T10:45:00;0.00;99.90
17529;DHT22;8882;53.192;8.184;2024-01-07T10:47:31;0.00;99.90
17529;DHT22;8882;53.192;8.184;2024-01-07T10:49:58;0.00;99.90
17529;DHT22;8882;53.192;8.184;2024-01-07T10:52:27;0.00;99.90
17529;DHT22;8882;53.192;8.184;2024-01-07T10:54:53;0.00;99.90
17529;DHT22;8882;53.192;8.184;2024-01-07T10:57:54;0.10;99.90
17529;DHT22;8882;53.192;8.184;2024-01-07T11:00:21;0.00;99.90
17529;DHT22;8882;53.192;8.184;2024-01-07T11:03:13;0.00;99.90
17529;DHT22;8882;53.192;8.184;2024-01-07T11:10:59;0.00;99.90
17529;DHT22;8882;53.192;8.184;2024-01-07T11:13:37;0.00;99.90
17529;DHT22;8882;53.192;8.184;2024-01-07T11:16:07;0.00;99.90
17529;DHT22;8882;53.192;8.184;2024-01-07T11:18:38;0.00;99.90
17529;DHT22;8882;53.192;8.184;2024-01-07T11:21:05;0.10;99.90
17529;DHT22;8882;53.192;8.184;2024-01-07T11:23:32;0.10;99.90
17529;DHT22;8882;53.192;8.184;2024-01-07T11:26:03;0.10;99.90
17529;DHT22;8882;53.192;8.184;2024-01-07T11:28:54;0.20;99.90
17529;DHT22;8882;53.192;8.184;2024-01-07T11:31:49;0.20;99.90
17529;DHT22;8882;53.192;8.184;2024-01-07T11:34:43;0.20;99.90
17529;DHT22;8882;53.192;8.184;2024-01-07T11:37:12;0.20;99.90
17529;DHT22;8882;53.192;8.184;2024-01-07T11:39:48;0.40;99.90
17529;DHT22;8882;53.192;8.184;2024-01-07T11:42:14;0.50;99.90
17529;DHT22;8882;53.192;8.184;2024-01-07T11:45:06;0.50;99.90
17529;DHT22;8882;53.192;8.184;2024-01-07T11:47:32;0.50;99.90
17529;DHT22;8882;53.192;8.184;2024-01-07T11:49:58;0.50;99.90
17529;DHT22;8882;53.192;8.184;2024-01-07T11:52:23;0.60;99.90
17529;DHT22;8882;53.192;8.184;2024-01-07T11:54:49;0.60;99.90
17529;DHT22;8882;53.192;8.184;2024-01-07T11:57:14;0.60;99.90
17529;DHT22;8882;53.192;8.184;2024-01-07T11:59:40;0.70;99.90
17529;DHT22;8882;53.192;8.184;2024-01-07T12:02:07;0.70;99.90
17529;DHT22;8882;53.192;8.184;2024-01-07T12:04:33;0.70;99.90
17529;DHT22;8882;53.192;8.184;2024-01-07T12:06:59;0.70;99.90
17529;DHT22;8882;53.192;8.184;2024-01-07T12:09:25;0.70;99.90
17529;DHT22;8882;53.192;8.184;2024-01-07T12:11:51;0.70;99.90
17529;DHT22;8882;53.192;8.184;2024-01-07T12:14:17;0.80;99.90
17529;DHT22;8882;53.192;8.184;2024-01-07T12:16:43;0.70;99.90
17529;DHT22;8882;53.192;8.184;2024-01-07T12:19:09;0.70;99.90
17529;DHT22;8882;53.192;8.184;2024-01-07T12:21:35;0.70;99.90
17529;DHT22;8882;53.192;8.184;2024-01-07T12:24:01;0.70;99.90
17529;DHT22;8882;53.192;8.184;2024-01-07T12:26:27;0.50;99.90
17529;DHT22;8882;53.192;8.184;2024-01-07T12:28:59;0.50;99.90
17529;DHT22;8882;53.192;8.184;2024-01-07T12:31:31;0.30;99.90
17529;DHT22;8882;53.192;8.184;2024-01-07T12:33:57;0.40;99.90
17529;DHT22;8882;53.192;8.184;2024-01-07T12:36:23;0.30;99.90
17529;DHT22;8882;53.192;8.184;2024-01-07T12:38:49;0.40;99.90
17529;DHT22;8882;53.192;8.184;2024-01-07T12:41:17;0.40;99.90
17529;DHT22;8882;53.192;8.184;2024-01-07T12:43:43;0.40;99.90
17529;DHT22;8882;53.192;8.184;2024-01-07T12:46:08;0.40;99.90
17529;DHT22;8882;53.192;8.184;2024-01-07T12:48:34;0.40;99.90
17529;DHT22;8882;53.192;8.184;2024-01-07T12:51:00;0.50;99.90
17529;DHT22;8882;53.192;8.184;2024-01-07T12:53:26;0.40;99.90
17529;DHT22;8882;53.192;8.184;2024-01-07T12:55:52;0.30;99.90
17529;DHT22;8882;53.192;8.184;2024-01-07T12:58:18;0.20;99.90
17529;DHT22;8882;53.192;8.184;2024-01-07T13:00:43;0.20;99.90
17529;DHT22;8882;53.192;8.184;2024-01-07T13:03:10;0.20;99.90
17529;DHT22;8882;53.192;8.184;2024-01-07T13:05:45;0.30;99.90
17529;DHT22;8882;53.192;8.184;2024-01-07T13:08:12;0.60;99.90
17529;DHT22;8882;53.192;8.184;2024-01-07T13:10:38;0.70;99.90
17529;DHT22;8882;53.192;8.184;2024-01-07T13:13:04;0.50;99.90
17529;DHT22;8882;53.192;8.184;2024-01-07T13:15:29;0.40;99.90
17529;DHT22;8882;53.192;8.184;2024-01-07T13:17:55;0.20;99.90
17529;DHT22;8882;53.192;8.184;2024-01-07T13:20:20;0.20;99.90
17529;DHT22;8882;53.192;8.184;2024-01-07T13:22:46;0.20;99.90
17529;DHT22;8882;53.192;8.184;2024-01-07T13:25:12;0.10;99.90
17529;DHT22;8882;53.192;8.184;2024-01-07T13:27:38;0.10;99.90
17529;DHT22;8882;53.192;8.184;2024-01-07T13:30:04;0.10;99.90
17529;DHT22;8882;53.192;8.184;2024-01-07T13:32:30;0.10;99.90
17529;DHT22;8882;53.192;8.184;2024-01-07T13:34:55;0.10;99.90
17529;DHT22;8882;53.192;8.184;2024-01-07T13:37:21;0.10;99.90
17529;DHT22;8882;53.192;8.184;2024-01-07T13:39:47;0.10;99.90
17529;DHT22;8882;53.192;8.184;2024-01-07T13:42:14;0.20;99.90
17529;DHT22;8882;53.192;8.184;2024-01-07T13:44:40;0.20;99.90
17529;DHT22;8882;53.192;8.184;2024-01-07T13:47:14;0.20;99.90
17529;DHT22;8882;53.192;8.184;2024-01-07T13:49:41;0.10;99.90
17529;DHT22;8882;53.192;8.184;2024-01-07T13:52:06;0.20;99.90
17529;DHT22;8882;53.192;8.184;2024-01-07T13:54:32;0.10;99.90
17529;DHT22;8882;53.192;8.184;2024-01-07T13:56:57;0.20;99.90
17529;DHT22;8882;53.192;8.184;2024-01-07T13:59:23;0.20;99.90
17529;DHT22;8882;53.192;8.184;2024-01-07T14:01:48;0.20;99.90
17529;DHT22;8882;53.192;8.184;2024-01-07T14:04:14;0.10;99.90
17529;DHT22;8882;53.192;8.184;2024-01-07T14:06:40;0.10;99.90
17529;DHT22;8882;53.192;8.184;2024-01-07T14:09:05;0.00;99.90
17529;DHT22;8882;53.192;8.184;2024-01-07T14:11:33;0.00;99.90
17529;DHT22;8882;53.192;8.184;2024-01-07T14:14:00;0.00;99.90
17529;DHT22;8882;53.192;8.184;2024-01-07T14:16:27;-0.10;99.90
17529;DHT22;8882;53.192;8.184;2024-01-07T14:18:52;-0.10;99.90
17529;DHT22;8882;53.192;8.184;2024-01-07T14:21:18;-0.10;99.90
17529;DHT22;8882;53.192;8.184;2024-01-07T14:23:43;-0.20;99.90
17529;DHT22;8882;53.192;8.184;2024-01-07T14:26:09;-0.20;99.90
17529;DHT22;8882;53.192;8.184;2024-01-07T14:28:34;-0.30;99.90
17529;DHT22;8882;53.192;8.184;2024-01-07T14:31:01;-0.20;99.90
17529;DHT22;8882;53.192;8.184;2024-01-07T14:33:27;-0.30;99.90
17529;DHT22;8882;53.192;8.184;2024-01-07T14:35:52;-0.10;99.90
17529;DHT22;8882;53.192;8.184;2024-01-07T14:38:18;-0.20;99.90
17529;DHT22;8882;53.192;8.184;2024-01-07T14:40:43;-0.20;99.90
17529;DHT22;8882;53.192;8.184;2024-01-07T14:43:12;-0.30;99.90
17529;DHT22;8882;53.192;8.184;2024-01-07T14:45:37;-0.30;99.90
17529;DHT22;8882;53.192;8.184;2024-01-07T14:48:03;-0.30;99.90
17529;DHT22;8882;53.192;8.184;2024-01-07T14:50:29;-0.30;99.90
17529;DHT22;8882;53.192;8.184;2024-01-07T14:52:54;-0.30;99.90
17529;DHT22;8882;53.192;8.184;2024-01-07T14:55:20;-0.40;99.90
17529;DHT22;8882;53.192;8.184;2024-01-07T14:57:45;-0.50;99.90
17529;DHT22;8882;53.192;8.184;2024-01-07T15:00:11;-0.50;99.90
17529;DHT22;8882;53.192;8.184;2024-01-07T15:02:36;-0.60;99.90
17529;DHT22;8882;53.192;8.184;2024-01-07T15:05:02;-0.60;99.90
17529;DHT22;8882;53.192;8.184;2024-01-07T15:07:28;-0.70;99.90
17529;DHT22;8882;53.192;8.184;2024-01-07T15:09:54;-0.70;99.90
17529;DHT22;8882;53.192;8.184;2024-01-07T15:12:19;-0.70;99.90
17529;DHT22;8882;53.192;8.184;2024-01-07T15:14:45;-0.70;99.90
17529;DHT22;8882;53.192;8.184;2024-01-07T15:17:10;-0.80;99.90
17529;DHT22;8882;53.192;8.184;2024-01-07T15:19:36;-0.80;99.90
17529;DHT22;8882;53.192;8.184;2024-01-07T15:22:02;-0.80;99.90
17529;DHT22;8882;53.192;8.184;2024-01-07T15:24:28;-0.90;99.90
17529;DHT22;8882;53.192;8.184;2024-01-07T15:26:54;-1.00;99.90
17529;DHT22;8882;53.192;8.184;2024-01-07T15:29:19;-1.00;99.90
17529;DHT22;8882;53.192;8.184;2024-01-07T15:31:45;-1.00;99.90
17529;DHT22;8882;53.192;8.184;2024-01-07T15:34:11;-1.00;99.90
17529;DHT22;8882;53.192;8.184;2024-01-07T15:36:38;-1.00;99.90
17529;DHT22;8882;53.192;8.184;2024-01-07T15:39:03;-1.10;99.90
17529;DHT22;8882;53.192;8.184;2024-01-07T15:41:29;-1.00;99.90
17529;DHT22;8882;53.192;8.184;2024-01-07T15:43:55;-1.00;99.90
17529;DHT22;8882;53.192;8.184;2024-01-07T15:46:20;-1.10;99.90
17529;DHT22;8882;53.192;8.184;2024-01-07T15:48:46;-1.10;99.90
17529;DHT22;8882;53.192;8.184;2024-01-07T15:51:11;-1.20;99.90
17529;DHT22;8882;53.192;8.184;2024-01-07T15:53:37;-1.20;99.90
17529;DHT22;8882;53.192;8.184;2024-01-07T15:56:03;-1.30;99.90
17529;DHT22;8882;53.192;8.184;2024-01-07T15:58:31;-1.30;99.90
17529;DHT22;8882;53.192;8.184;2024-01-07T16:01:01;-1.30;99.90
17529;DHT22;8882;53.192;8.184;2024-01-07T16:03:31;-1.40;99.90
17529;DHT22;8882;53.192;8.184;2024-01-07T16:05:57;-1.40;99.90
17529;DHT22;8882;53.192;8.184;2024-01-07T17:23:34;-2.20;99.90
17529;DHT22;8882;53.192;8.184;2024-01-07T17:26:00;-2.20;99.90
17529;DHT22;8882;53.192;8.184;2024-01-07T17:28:26;-2.30;99.90
17529;DHT22;8882;53.192;8.184;2024-01-07T17:30:51;-2.30;99.90
17529;DHT22;8882;53.192;8.184;2024-01-07T17:33:16;-2.30;99.90
17529;DHT22;8882;53.192;8.184;2024-01-07T17:35:42;-2.30;99.90
17529;DHT22;8882;53.192;8.184;2024-01-07T17:38:08;-2.30;99.90
17529;DHT22;8882;53.192;8.184;2024-01-07T17:40:33;-2.30;99.90
17529;DHT22;8882;53.192;8.184;2024-01-07T17:42:59;-2.30;99.90
17529;DHT22;8882;53.192;8.184;2024-01-07T17:45:26;-2.30;99.90
17529;DHT22;8882;53.192;8.184;2024-01-07T17:47:52;-2.20;99.90
17529;DHT22;8882;53.192;8.184;2024-01-07T17:50:21;-2.30;99.90
17529;DHT22;8882;53.192;8.184;2024-01-07T17:52:46;-2.20;99.90
17529;DHT22;8882;53.192;8.184;2024-01-07T17:55:12;-2.20;99.90
17529;DHT22;8882;53.192;8.184;2024-01-07T17:57:37;-2.20;99.90
17529;DHT22;8882;53.192;8.184;2024-01-07T18:00:04;-2.20;99.90
17529;DHT22;8882;53.192;8.184;2024-01-07T18:02:32;-2.30;99.90
17529;DHT22;8882;53.192;8.184;2024-01-07T18:04:57;-2.20;99.90
17529;DHT22;8882;53.192;8.184;2024-01-07T18:07:23;-2.20;99.90
17529;DHT22;8882;53.192;8.184;2024-01-07T18:09:48;-2.20;99.90
17529;DHT22;8882;53.192;8.184;2024-01-07T18:12:16;-2.20;99.90
17529;DHT22;8882;53.192;8.184;2024-01-07T18:14:43;-2.20;99.90
17529;DHT22;8882;53.192;8.184;2024-01-07T18:17:09;-2.20;99.90
17529;DHT22;8882;53.192;8.184;2024-01-07T18:19:35;-2.10;99.90
17529;DHT22;8882;53.192;8.184;2024-01-07T18:22:00;-2.10;99.90
17529;DHT22;8882;53.192;8.184;2024-01-07T18:24:26;-2.10;99.90
17529;DHT22;8882;53.192;8.184;2024-01-07T18:26:51;-2.10;99.90
17529;DHT22;8882;53.192;8.184;2024-01-07T18:29:22;-2.10;99.90
17529;DHT22;8882;53.192;8.184;2024-01-07T18:31:48;-2.10;99.90
17529;DHT22;8882;53.192;8.184;2024-01-07T18:34:13;-2.00;99.90
17529;DHT22;8882;53.192;8.184;2024-01-07T18:36:39;-2.10;99.90
17529;DHT22;8882;53.192;8.184;2024-01-07T18:39:06;-2.00;99.90
17529;DHT22;8882;53.192;8.184;2024-01-07T18:41:33;-2.00;99.90
17529;DHT22;8882;53.192;8.184;2024-01-07T18:43:59;-1.90;99.90
17529;DHT22;8882;53.192;8.184;2024-01-07T18:46:24;-2.00;99.90
17529;DHT22;8882;53.192;8.184;2024-01-07T18:48:50;-1.90;99.90
17529;DHT22;8882;53.192;8.184;2024-01-07T18:51:15;-1.90;99.90
17529;DHT22;8882;53.192;8.184;2024-01-07T18:53:41;-1.90;99.90
17529;DHT22;8882;53.192;8.184;2024-01-07T18:56:07;-1.90;99.90
17529;DHT22;8882;53.192;8.184;2024-01-07T18:58:33;-1.90;99.90
17529;DHT22;8882;53.192;8.184;2024-01-07T19:01:00;-1.90;99.90
17529;DHT22;8882;53.192;8.184;2024-01-07T19:03:25;-1.90;99.90
17529;DHT22;8882;53.192;8.184;2024-01-07T19:05:52;-1.90;99.90
17529;DHT22;8882;53.192;8.184;2024-01-07T19:08:17;-1.90;99.90
17529;DHT22;8882;53.192;8.184;2024-01-07T19:10:43;-2.00;99.90
17529;DHT22;8882;53.192;8.184;2024-01-07T19:13:09;-2.00;99.90
17529;DHT22;8882;53.192;8.184;2024-01-07T19:15:35;-2.00;99.90
17529;DHT22;8882;53.192;8.184;2024-01-07T19:18:02;-2.00;99.90
17529;DHT22;8882;53.192;8.184;2024-01-07T19:20:27;-2.00;99.90
17529;DHT22;8882;53.192;8.184;2024-01-07T19:22:56;-2.00;99.90
17529;DHT22;8882;53.192;8.184;2024-01-07T19:25:22;-2.00;99.90
17529;DHT22;8882;53.192;8.184;2024-01-07T19:27:47;-2.10;99.90
17529;DHT22;8882;53.192;8.184;2024-01-07T19:30:13;-2.10;99.90
17529;DHT22;8882;53.192;8.184;2024-01-07T19:32:39;-2.10;99.90
17529;DHT22;8882;53.192;8.184;2024-01-07T19:35:06;-2.10;99.90
17529;DHT22;8882;53.192;8.184;2024-01-07T19:37:33;-2.20;99.90
17529;DHT22;8882;53.192;8.184;2024-01-07T19:39:58;-2.20;99.90
17529;DHT22;8882;53.192;8.184;2024-01-07T19:42:25;-2.20;99.90
17529;DHT22;8882;53.192;8.184;2024-01-07T19:44:52;-2.20;99.90
17529;DHT22;8882;53.192;8.184;2024-01-07T19:47:17;-2.20;99.90
17529;DHT22;8882;53.192;8.184;2024-01-07T19:49:43;-2.20;99.90
17529;DHT22;8882;53.192;8.184;2024-01-07T19:52:08;-2.30;99.90
17529;DHT22;8882;53.192;8.184;2024-01-07T19:54:34;-2.30;99.90
17529;DHT22;8882;53.192;8.184;2024-01-07T19:56:59;-2.30;99.90
17529;DHT22;8882;53.192;8.184;2024-01-07T19:59:25;-2.20;99.90
17529;DHT22;8882;53.192;8.184;2024-01-07T20:01:50;-2.20;99.90
17529;DHT22;8882;53.192;8.184;2024-01-07T20:04:16;-2.20;99.90
17529;DHT22;8882;53.192;8.184;2024-01-07T20:06:41;-2.30;99.90
17529;DHT22;8882;53.192;8.184;2024-01-07T20:09:07;-2.30;99.90
17529;DHT22;8882;53.192;8.184;2024-01-07T20:11:33;-2.40;99.90
17529;DHT22;8882;53.192;8.184;2024-01-07T20:13:58;-2.40;99.90
17529;DHT22;8882;53.192;8.184;2024-01-07T20:16:24;-2.50;99.90
17529;DHT22;8882;53.192;8.184;2024-01-07T20:18:50;-2.50;99.90
17529;DHT22;8882;53.192;8.184;2024-01-07T20:21:28;-2.50;99.90
17529;DHT22;8882;53.192;8.184;2024-01-07T20:23:55;-2.60;99.90
17529;DHT22;8882;53.192;8.184;2024-01-07T20:26:28;-2.60;99.90
17529;DHT22;8882;53.192;8.184;2024-01-07T20:28:54;-2.50;99.90
17529;DHT22;8882;53.192;8.184;2024-01-07T20:31:21;-2.60;99.90
17529;DHT22;8882;53.192;8.184;2024-01-07T20:33:47;-2.60;99.90
17529;DHT22;8882;53.192;8.184;2024-01-07T20:36:14;-2.60;99.90
17529;DHT22;8882;53.192;8.184;2024-01-07T20:38:39;-2.60;99.90
17529;DHT22;8882;53.192;8.184;2024-01-07T20:41:06;-2.60;99.90
17529;DHT22;8882;53.192;8.184;2024-01-07T20:43:32;-2.60;99.90
17529;DHT22;8882;53.192;8.184;2024-01-07T20:45:57;-2.60;99.90
17529;DHT22;8882;53.192;8.184;2024-01-07T20:48:24;-2.60;99.90
17529;DHT22;8882;53.192;8.184;2024-01-07T20:50:50;-2.70;99.90
17529;DHT22;8882;53.192;8.184;2024-01-07T20:53:16;-2.70;99.90
17529;DHT22;8882;53.192;8.184;2024-01-07T20:55:44;-2.70;99.90
17529;DHT22;8882;53.192;8.184;2024-01-07T20:58:10;-2.70;99.90
17529;DHT22;8882;53.192;8.184;2024-01-07T21:00:36;-2.70;99.90
17529;DHT22;8882;53.192;8.184;2024-01-07T21:03:02;-2.70;99.90
17529;DHT22;8882;53.192;8.184;2024-01-07T21:05:28;-2.70;99.90
17529;DHT22;8882;53.192;8.184;2024-01-07T21:07:54;-2.70;99.90
17529;DHT22;8882;53.192;8.184;2024-01-07T21:10:19;-2.60;99.90
17529;DHT22;8882;53.192;8.184;2024-01-07T21:12:45;-2.70;99.90
17529;DHT22;8882;53.192;8.184;2024-01-07T21:15:10;-2.70;99.90
17529;DHT22;8882;53.192;8.184;2024-01-07T21:17:37;-2.70;99.90
17529;DHT22;8882;53.192;8.184;2024-01-07T21:20:08;-2.70;99.90
17529;DHT22;8882;53.192;8.184;2024-01-07T21:22:34;-2.70;99.90
17529;DHT22;8882;53.192;8.184;2024-01-07T21:25:00;-2.70;99.90
17529;DHT22;8882;53.192;8.184;2024-01-07T21:30:10;-2.70;99.90
17529;DHT22;8882;53.192;8.184;2024-01-07T21:32:35;-2.70;99.90
17529;DHT22;8882;53.192;8.184;2024-01-07T21:35:01;-2.70;99.90
17529;DHT22;8882;53.192;8.184;2024-01-07T21:37:27;-2.70;99.90
17529;DHT22;8882;53.192;8.184;2024-01-07T21:39:52;-2.80;99.90
17529;DHT22;8882;53.192;8.184;2024-01-07T21:42:20;-2.80;99.90
17529;DHT22;8882;53.192;8.184;2024-01-07T21:44:46;-2.80;99.90
17529;DHT22;8882;53.192;8.184;2024-01-07T21:47:12;-2.80;99.90
17529;DHT22;8882;53.192;8.184;2024-01-07T21:49:47;-2.80;99.90
17529;DHT22;8882;53.192;8.184;2024-01-07T21:52:16;-2.90;99.90
17529;DHT22;8882;53.192;8.184;2024-01-07T21:54:44;-2.90;99.90
17529;DHT22;8882;53.192;8.184;2024-01-07T21:59:14;-2.80;99.90
17529;DHT22;8882;53.192;8.184;2024-01-07T22:01:40;-2.70;99.90
17529;DHT22;8882;53.192;8.184;2024-01-07T22:04:05;-2.70;99.90
17529;DHT22;8882;53.192;8.184;2024-01-07T22:06:31;-2.60;99.90
17529;DHT22;8882;53.192;8.184;2024-01-07T22:08:56;-2.60;99.90
17529;DHT22;8882;53.192;8.184;2024-01-07T22:11:22;-2.60;99.90
17529;DHT22;8882;53.192;8.184;2024-01-07T22:13:48;-2.60;99.90
17529;DHT22;8882;53.192;8.184;2024-01-07T22:16:14;-2.60;99.90
17529;DHT22;8882;53.192;8.184;2024-01-07T22:18:40;-2.60;99.90
17529;DHT22;8882;53.192;8.184;2024-01-07T22:21:11;-2.60;99.90
17529;DHT22;8882;53.192;8.184;2024-01-07T22:23:40;-2.60;99.90
17529;DHT22;8882;53.192;8.184;2024-01-07T22:26:06;-2.60;99.90